LKKV

Karlovy Vary International Airport

Karlovy Vary, Czech Republic
METAR LKKV 170300Z VRB01KT CAVOK 12/09 Q1016
Observed Flight Rules
Aug-17 @ 03:00 UTC (an hour ago) Visual Flight Rules
Wind Visibility Clouds
Variable at 1 knots 10,000+ meters
  • Clear skies
Temperatures Readings
Current 12°C / 54°F
Dewpoint 9°C / 48°F
Humidity 82%
Altimeter 30" Hg
Pressure 1016 hPa
Elevation 604
METAR LKKV 170300Z VRB01KT CAVOK 12/09 Q1016
Observed Flight Rules
Aug-17 @ 03:00 UTC
(an hour ago)
VFR
Wind Visibility
Variable at 1 knots 10,000+ meters
Clouds
  • Clear skies
Temperature Dewpoint
12°C / 54°F 9°C / 48°F
Humidity Altimeter Pressure
82% 30" Hg 1016 hPa